Time;durP1;ratioP1;P1;durP2;ratioP2;P2;SDS_P1;SDS_P2;PMS_P1;PMS_P2;Temp;Humidity;BMP_temperature;BMP_pressure;BME280_temperature;BME280_humidity;BME280_pressure;Samples;Min_cycle;Max_cycle;Signal;HPM_P1;HPM_P2
2023/09/12 00:02:04;;;;;;;10.65;5.95;;;;;;;-142.57;55.07;115900.28;5054926;28;20025;-80
2023/09/12 00:04:55;;;;;;;9.23;6.15;;;;;;;-142.57;55.20;115900.28;5055139;28;20411;-80
2023/09/12 00:07:21;;;;;;;10.20;6.30;;;;;;;-142.57;55.32;115900.28;5055623;28;20037;-81
2023/09/12 00:09:46;;;;;;;8.45;6.60;;;;;;;-142.57;55.63;115900.28;5054436;28;20065;-80
2023/09/12 00:12:16;;;;;;;7.88;5.97;;;;;;;-142.57;55.72;115900.28;5054971;28;20163;-79
2023/09/12 00:14:42;;;;;;;10.68;6.72;;;;;;;-142.57;56.71;115900.28;5054691;28;20560;-81
2023/09/12 00:17:08;;;;;;;9.52;6.35;;;;;;;-142.57;56.54;115900.28;5036455;28;20060;-80
2023/09/12 00:19:35;;;;;;;10.48;6.65;;;;;;;-142.57;56.73;115900.28;5055037;28;20422;-80
2023/09/12 00:22:00;;;;;;;9.50;6.95;;;;;;;-142.57;57.61;115900.28;5054432;28;20112;-79
2023/09/12 00:24:26;;;;;;;11.93;6.75;;;;;;;-142.57;57.63;115900.28;5038372;28;20547;-80
2023/09/12 00:26:51;;;;;;;9.55;6.53;;;;;;;-142.57;59.17;115900.28;5044228;28;20112;-81
2023/09/12 00:29:17;;;;;;;12.10;6.90;;;;;;;-142.57;59.06;115900.28;5055112;28;20444;-79
2023/09/12 00:31:42;;;;;;;10.18;6.60;;;;;;;-142.57;58.70;115900.28;5065359;28;20468;-80
2023/09/12 00:34:08;;;;;;;12.73;7.13;;;;;;;-142.57;59.99;115900.28;5048009;28;20049;-80
2023/09/12 00:36:33;;;;;;;9.52;7.03;;;;;;;-142.57;60.02;115900.28;5056450;28;20033;-80
2023/09/12 00:38:59;;;;;;;12.82;6.65;;;;;;;-142.57;59.94;115900.28;5071404;28;20025;-80
2023/09/12 00:41:24;;;;;;;9.45;6.90;;;;;;;-142.57;59.85;115900.28;5073094;28;20028;-80
2023/09/12 00:43:50;;;;;;;8.85;6.35;;;;;;;-142.57;59.29;115900.28;5061693;28;20116;-80
2023/09/12 00:46:19;;;;;;;7.85;6.63;;;;;;;-142.57;59.76;115900.28;5055140;28;20373;-80
2023/09/12 00:48:46;;;;;;;13.13;6.68;;;;;;;-142.57;60.17;115900.28;5055553;28;20372;-80
2023/09/12 00:51:13;;;;;;;11.95;6.43;;;;;;;-142.57;60.29;115900.28;5055691;28;20087;-80
2023/09/12 00:53:39;;;;;;;14.55;6.55;;;;;;;-142.57;60.48;115900.28;5054869;28;20080;-81
2023/09/12 00:56:06;;;;;;;8.38;7.00;;;;;;;-142.57;59.75;115900.28;5054716;28;20116;-81
2023/09/12 00:58:32;;;;;;;15.48;7.22;;;;;;;-142.57;59.97;115900.28;5037368;28;20040;-79
2023/09/12 01:00:58;;;;;;;9.88;6.35;;;;;;;-142.57;59.65;115900.28;5037516;28;20029;-80
2023/09/12 01:03:24;;;;;;;8.35;6.30;;;;;;;-142.57;59.21;115900.28;5035070;28;20048;-80
2023/09/12 01:05:50;;;;;;;12.32;6.60;;;;;;;-142.57;59.31;115900.28;5048359;28;20037;-79
2023/09/12 01:08:16;;;;;;;10.15;7.03;;;;;;;-142.57;60.21;115900.28;5035154;28;20040;-79
2023/09/12 01:10:45;;;;;;;9.73;6.45;;;;;;;-142.57;60.73;115900.28;5034856;28;20052;-80
2023/09/12 01:13:13;;;;;;;11.90;7.10;;;;;;;-142.57;61.22;115900.28;5054012;28;20121;-81
2023/09/12 01:15:41;;;;;;;9.30;7.50;;;;;;;-142.57;61.40;115900.28;5054188;28;20091;-82
2023/09/12 01:18:06;;;;;;;10.90;6.60;;;;;;;-142.57;61.41;115900.28;5054375;28;20040;-80
2023/09/12 01:20:35;;;;;;;10.85;6.65;;;;;;;-142.57;61.62;115900.28;5029741;28;20029;-79
2023/09/12 01:23:21;;;;;;;13.43;6.80;;;;;;;-142.57;61.07;115900.28;5050803;28;20047;-80
2023/09/12 01:26:01;;;;;;;10.63;6.68;;;;;;;-142.57;60.48;115900.28;5053805;28;20033;-81
2023/09/12 01:28:34;;;;;;;12.38;6.93;;;;;;;-142.57;60.56;115900.28;5036280;28;20037;-81
2023/09/12 01:31:02;;;;;;;10.00;6.85;;;;;;;-142.57;60.48;115900.28;5036263;28;20032;-82
2023/09/12 01:33:29;;;;;;;9.50;7.32;;;;;;;-142.57;60.14;115900.28;5054122;28;20037;-81
2023/09/12 01:35:54;;;;;;;11.07;6.30;;;;;;;-142.57;59.23;115900.28;5054021;28;20056;-79
2023/09/12 01:38:21;;;;;;;9.35;6.75;;;;;;;-142.57;61.89;115900.28;5035609;28;20464;-80
2023/09/12 01:40:50;;;;;;;10.20;6.63;;;;;;;-142.57;61.93;115900.28;5036383;28;20408;-79
2023/09/12 01:43:18;;;;;;;11.10;7.57;;;;;;;-142.57;61.87;115900.28;5036460;28;20033;-79
2023/09/12 01:45:47;;;;;;;13.52;7.45;;;;;;;-142.57;61.49;115900.28;5053911;28;20017;-80
2023/09/12 01:48:16;;;;;;;10.38;6.47;;;;;;;-142.57;62.27;115900.28;5036589;28;20041;-80
2023/09/12 01:50:43;;;;;;;17.77;6.60;;;;;;;-142.57;62.81;115900.28;5023070;28;20041;-81
2023/09/12 01:53:11;;;;;;;10.38;6.93;;;;;;;-142.57;63.01;115900.28;5036991;28;20029;-80
2023/09/12 01:55:37;;;;;;;9.75;7.03;;;;;;;-142.57;63.86;115900.28;5036861;28;20060;-79
2023/09/12 01:58:03;;;;;;;10.50;7.00;;;;;;;-142.57;63.68;115900.28;5038094;28;20049;-79
2023/09/12 02:00:29;;;;;;;10.85;6.53;;;;;;;-142.57;62.48;115900.28;5019048;28;20041;-80
2023/09/12 02:02:54;;;;;;;14.60;7.45;;;;;;;-142.57;62.01;115900.28;5048712;28;20029;-80
2023/09/12 02:05:22;;;;;;;11.60;7.25;;;;;;;-142.57;62.64;115900.28;5053500;28;20483;-80
2023/09/12 02:07:48;;;;;;;10.82;6.93;;;;;;;-142.57;63.23;115900.28;5052354;28;20073;-80
2023/09/12 02:10:14;;;;;;;11.40;7.15;;;;;;;-142.57;63.98;115900.28;5053357;28;20028;-80
2023/09/12 02:12:40;;;;;;;13.13;6.50;;;;;;;-142.57;62.57;115900.28;5035499;28;20124;-79
2023/09/12 02:15:07;;;;;;;8.52;6.82;;;;;;;-142.57;62.24;115900.28;5035448;28;20175;-80
2023/09/12 02:17:32;;;;;;;11.05;7.03;;;;;;;-142.57;63.93;115900.28;5034724;28;20053;-80
2023/09/12 02:20:03;;;;;;;14.93;6.93;;;;;;;-142.57;65.10;115900.28;5035028;28;20369;-79
2023/09/12 02:22:28;;;;;;;9.73;7.18;;;;;;;-142.57;65.37;115900.28;5052599;28;20044;-78
2023/09/12 02:24:54;;;;;;;9.95;7.18;;;;;;;-142.57;64.52;115900.28;5052882;28;20037;-78
2023/09/12 02:27:19;;;;;;;10.07;7.40;;;;;;;-142.57;64.81;115900.28;5053368;28;20033;-80
2023/09/12 02:29:45;;;;;;;15.45;7.85;;;;;;;-142.57;65.14;115900.28;5052849;28;20086;-76
2023/09/12 02:32:10;;;;;;;10.48;7.45;;;;;;;-142.57;65.31;115900.28;5053460;28;20095;-79
2023/09/12 02:34:36;;;;;;;15.50;8.07;;;;;;;-142.57;66.25;115900.28;5034719;28;20059;-80
2023/09/12 02:37:01;;;;;;;13.90;8.32;;;;;;;-142.57;66.85;115900.28;5051664;28;20068;-80
2023/09/12 02:39:27;;;;;;;12.07;7.82;;;;;;;-142.57;67.13;115900.28;5049803;28;20030;-79
2023/09/12 02:41:53;;;;;;;12.10;8.13;;;;;;;-142.57;67.34;115900.28;5036729;28;20033;-80
2023/09/12 02:44:19;;;;;;;11.43;8.05;;;;;;;-142.57;68.25;115900.28;5034734;28;20471;-78
2023/09/12 02:46:44;;;;;;;9.75;7.80;;;;;;;-142.57;69.51;115900.28;5064269;28;20036;-79
2023/09/12 02:49:10;;;;;;;11.48;8.35;;;;;;;-142.57;69.18;115900.28;5029907;28;20134;-78
2023/09/12 02:51:39;;;;;;;16.77;8.65;;;;;;;-142.57;68.89;115900.28;5037200;28;20498;-79
2023/09/12 02:54:06;;;;;;;15.38;8.80;;;;;;;-142.57;69.78;115900.28;5017715;28;20473;-79
2023/09/12 02:56:32;;;;;;;14.18;9.45;;;;;;;-142.57;70.22;115900.28;5018925;28;20029;-81
2023/09/12 02:58:57;;;;;;;13.82;8.88;;;;;;;-142.57;69.85;115900.28;5016003;28;20113;-80
2023/09/12 03:01:27;;;;;;;12.43;8.07;;;;;;;-142.57;70.67;115900.28;5015207;28;20049;-79
2023/09/12 03:03:54;;;;;;;11.73;8.63;;;;;;;-142.57;72.31;115900.28;5015391;28;20041;-80
2023/09/12 03:06:20;;;;;;;15.43;8.98;;;;;;;-142.57;71.92;115900.28;5032399;28;20034;-81
2023/09/12 03:08:47;;;;;;;12.77;8.45;;;;;;;-142.57;70.92;115900.28;5031809;28;20029;-79
2023/09/12 03:11:12;;;;;;;14.13;9.02;;;;;;;-142.57;72.46;115900.28;5014845;28;20163;-80
2023/09/12 03:13:40;;;;;;;11.30;8.60;;;;;;;-142.57;73.00;115900.28;5032734;28;20049;-81
2023/09/12 03:16:13;;;;;;;13.00;8.65;;;;;;;-142.57;72.22;115900.28;5038138;28;20029;-80
2023/09/12 03:18:38;;;;;;;17.83;7.90;;;;;;;-142.57;71.73;115900.28;5051932;28;20124;-78
2023/09/12 03:21:04;;;;;;;12.27;8.63;;;;;;;-142.57;70.82;115900.28;5036299;28;20492;-79
2023/09/12 03:23:30;;;;;;;15.07;8.88;;;;;;;-142.57;70.92;115900.28;5034232;28;20553;-79
2023/09/12 03:26:02;;;;;;;11.43;9.05;;;;;;;-142.57;70.41;115900.28;5052481;28;20150;-80
2023/09/12 03:28:28;;;;;;;17.38;9.25;;;;;;;-142.57;69.45;115900.28;5034742;28;20079;-80
2023/09/12 03:31:07;;;;;;;14.57;8.32;;;;;;;-142.57;69.78;115900.28;5034117;28;20036;-79
2023/09/12 03:33:33;;;;;;;12.70;8.70;;;;;;;-142.57;69.53;115900.28;5033169;28;20041;-80
2023/09/12 03:35:58;;;;;;;12.40;8.50;;;;;;;-142.57;69.59;115900.28;5051507;28;20091;-79
2023/09/12 03:38:24;;;;;;;15.70;8.23;;;;;;;-142.57;69.24;115900.28;5034466;28;20095;-81
2023/09/12 03:40:50;;;;;;;11.07;8.10;;;;;;;-142.57;69.05;115900.28;5034092;28;20595;-80
2023/09/12 03:43:16;;;;;;;13.65;8.70;;;;;;;-142.57;69.58;115900.28;5051447;28;20552;-81
2023/09/12 03:45:41;;;;;;;14.50;7.85;;;;;;;-142.57;70.01;115900.28;5033194;28;20037;-80
2023/09/12 03:48:07;;;;;;;14.25;8.90;;;;;;;-142.57;69.86;115900.28;5034164;28;20037;-80
2023/09/12 03:50:34;;;;;;;14.70;8.65;;;;;;;-142.57;69.22;115900.28;5051742;28;20064;-79
2023/09/12 03:52:59;;;;;;;13.80;8.50;;;;;;;-142.57;68.29;115900.28;5033201;28;20029;-79
2023/09/12 03:55:27;;;;;;;14.85;8.63;;;;;;;-142.57;68.52;115900.28;5048732;28;20041;-80
2023/09/12 03:57:52;;;;;;;13.43;7.93;;;;;;;-142.57;69.43;115900.28;5013793;28;20026;-78
2023/09/12 04:00:18;;;;;;;18.98;8.75;;;;;;;-142.57;68.39;115900.28;5030696;28;20041;-79
2023/09/12 04:02:47;;;;;;;11.52;8.43;;;;;;;-142.57;68.39;115900.28;5013952;28;20160;-79
2023/09/12 04:05:14;;;;;;;13.77;8.45;;;;;;;-142.57;68.12;115900.28;5013884;28;20168;-79
2023/09/12 04:07:39;;;;;;;14.05;9.40;;;;;;;-142.57;70.38;115900.28;5016567;28;20055;-80
2023/09/12 04:10:08;;;;;;;12.98;8.90;;;;;;;-142.57;71.15;115900.28;5051304;28;20025;-79
2023/09/12 04:12:33;;;;;;;12.93;9.02;;;;;;;-142.57;71.99;115900.28;5050259;28;20551;-79
2023/09/12 04:14:59;;;;;;;20.00;9.05;;;;;;;-142.57;71.84;115900.28;5033846;28;20135;-79
2023/09/12 04:17:25;;;;;;;16.17;8.65;;;;;;;-142.57;72.19;115900.28;5033647;28;20396;-80
2023/09/12 04:19:50;;;;;;;16.17;9.25;;;;;;;-142.57;73.35;115900.28;5017481;28;20063;-79
2023/09/12 04:22:16;;;;;;;14.80;9.10;;;;;;;-142.57;73.12;115900.28;5036858;28;20075;-77
2023/09/12 04:24:41;;;;;;;13.93;8.65;;;;;;;-142.57;73.07;115900.28;5037128;28;20041;-80
2023/09/12 04:27:07;;;;;;;12.68;8.80;;;;;;;-142.57;71.85;115900.28;5036731;28;20033;-78
2023/09/12 04:29:36;;;;;;;16.23;9.57;;;;;;;-142.57;71.95;115900.28;5055093;28;20036;-79
2023/09/12 04:32:04;;;;;;;17.92;8.85;;;;;;;-142.57;71.86;115900.28;5020722;28;20537;-79
2023/09/12 04:34:30;;;;;;;14.35;8.20;;;;;;;-142.57;70.51;115900.28;5036691;28;20053;-79
2023/09/12 04:36:56;;;;;;;11.20;8.55;;;;;;;-142.57;69.82;115900.28;5037357;28;20025;-80
2023/09/12 04:39:22;;;;;;;15.55;9.35;;;;;;;-142.57;69.48;115900.28;5038737;28;20078;-85
2023/09/12 04:41:48;;;;;;;11.88;8.68;;;;;;;-142.57;70.32;115900.28;5062697;28;20021;-88
2023/09/12 04:44:15;;;;;;;13.30;9.63;;;;;;;-142.57;70.97;115900.28;5062575;28;20021;-87
2023/09/12 04:46:40;;;;;;;12.20;8.70;;;;;;;-142.57;69.80;115900.28;5058627;28;20033;-88
2023/09/12 04:49:06;;;;;;;13.05;8.10;;;;;;;-142.57;70.63;115900.28;5062074;28;20510;-87
2023/09/12 04:51:32;;;;;;;13.63;9.13;;;;;;;-142.57;71.30;115900.28;5025959;28;20028;-88
2023/09/12 04:54:00;;;;;;;24.00;9.23;;;;;;;-142.57;72.69;115900.28;5041730;28;20499;-87
2023/09/12 04:56:26;;;;;;;17.05;8.82;;;;;;;-142.57;72.22;115900.28;5039154;28;20124;-87
2023/09/12 04:58:52;;;;;;;16.45;9.00;;;;;;;-142.57;72.33;115900.28;5057337;28;21130;-87
2023/09/12 05:01:17;;;;;;;25.60;10.25;;;;;;;-142.57;70.80;115900.28;5038566;28;20029;-88
2023/09/12 05:03:44;;;;;;;14.50;9.15;;;;;;;-142.57;70.68;115900.28;5022747;28;20040;-89
2023/09/12 05:06:10;;;;;;;12.50;8.23;;;;;;;-142.57;70.52;115900.28;5039283;28;20092;-87
2023/09/12 05:08:36;;;;;;;17.85;9.20;;;;;;;-142.57;70.65;115900.28;5038772;28;20029;-89
2023/09/12 05:11:02;;;;;;;14.77;8.60;;;;;;;-142.57;70.01;115900.28;5037377;28;20501;-88
2023/09/12 05:13:29;;;;;;;10.98;8.15;;;;;;;-142.57;69.08;115900.28;5057676;28;20067;-87
2023/09/12 05:15:55;;;;;;;25.83;9.50;;;;;;;-142.57;67.88;115900.28;5038734;28;20044;-86
2023/09/12 05:18:21;;;;;;;15.60;8.52;;;;;;;-142.57;67.93;115900.28;5038109;28;20146;-88
2023/09/12 05:20:47;;;;;;;21.02;10.50;;;;;;;-142.57;69.38;115900.28;5022287;28;20021;-88
2023/09/12 05:23:21;;;;;;;13.60;8.80;;;;;;;-142.57;67.56;115900.28;5047265;28;20045;-90
2023/09/12 05:25:55;;;;;;;15.73;9.80;;;;;;;-142.57;69.37;115900.28;5014408;28;20037;-90
2023/09/12 05:28:20;;;;;;;16.67;9.10;;;;;;;-142.57;71.11;115900.28;5028012;28;20051;-91
2023/09/12 05:30:48;;;;;;;19.75;10.13;;;;;;;-142.57;71.61;115900.28;5043656;28;20029;-89
2023/09/12 05:33:14;;;;;;;22.85;9.68;;;;;;;-142.57;71.41;115900.28;5042377;28;20067;-87
2023/09/12 05:35:40;;;;;;;17.90;9.90;;;;;;;-142.57;72.52;115900.28;5058496;28;20116;-88
2023/09/12 05:38:06;;;;;;;21.02;10.20;;;;;;;-142.57;71.23;115900.28;5004855;28;20506;-87
2023/09/12 05:40:31;;;;;;;23.23;10.00;;;;;;;-142.57;69.31;115900.28;5037643;28;20116;-85
2023/09/12 05:43:00;;;;;;;13.95;9.25;;;;;;;-142.57;68.60;115900.28;5038202;28;20037;-94
2023/09/12 05:45:30;;;;;;;16.27;9.50;;;;;;;-142.57;68.64;115900.28;5003914;28;20032;-90
2023/09/12 05:48:02;;;;;;;20.15;9.45;;;;;;;-142.57;67.62;115900.28;5020058;28;20053;-90
2023/09/12 05:50:30;;;;;;;16.83;9.35;;;;;;;-142.57;64.71;115900.28;5029678;28;20037;-90
2023/09/12 05:52:56;;;;;;;18.42;10.60;;;;;;;-142.57;64.93;115900.28;5038360;28;20029;-88
2023/09/12 05:55:22;;;;;;;24.02;9.73;;;;;;;-142.57;64.93;115900.28;5050958;28;20034;-88
2023/09/12 05:57:52;;;;;;;21.23;10.65;;;;;;;-142.57;66.50;115900.28;5040836;28;20040;-86
2023/09/12 06:00:21;;;;;;;15.90;9.07;;;;;;;-142.57;66.35;115900.28;5025284;28;20097;-91
2023/09/12 06:02:50;;;;;;;15.73;9.95;;;;;;;-142.57;65.36;115900.28;5041148;28;20068;-83
2023/09/12 06:05:16;;;;;;;18.73;9.35;;;;;;;-142.57;67.97;115900.28;5057861;28;20025;-90
2023/09/12 06:07:43;;;;;;;17.63;9.75;;;;;;;-142.57;68.74;115900.28;5030666;28;20181;-87
2023/09/12 06:10:09;;;;;;;18.75;9.32;;;;;;;-142.57;69.25;115900.28;5059325;28;20028;-88
2023/09/12 06:12:36;;;;;;;18.05;9.98;;;;;;;-142.57;68.97;115900.28;5056370;28;20087;-90
2023/09/12 06:15:05;;;;;;;16.27;10.20;;;;;;;-142.57;68.72;115900.28;5045757;28;20040;-88
2023/09/12 06:17:33;;;;;;;20.17;8.80;;;;;;;-142.57;69.93;115900.28;5049089;28;20049;-86
2023/09/12 06:19:59;;;;;;;17.60;10.18;;;;;;;-142.57;68.78;115900.28;5056125;28;20031;-87
2023/09/12 06:22:24;;;;;;;19.00;9.77;;;;;;;-142.57;67.29;115900.28;5031427;28;20040;-83
2023/09/12 06:24:51;;;;;;;12.25;9.65;;;;;;;-142.57;63.79;115900.28;5050022;28;20096;-87
2023/09/12 06:27:19;;;;;;;26.33;9.85;;;;;;;-142.57;66.11;115900.28;5053420;28;20036;-83
2023/09/12 06:29:48;;;;;;;18.05;10.68;;;;;;;-142.57;66.81;115900.28;5049566;28;20029;-85
2023/09/12 06:32:19;;;;;;;16.45;10.27;;;;;;;-142.57;67.33;115900.28;5045738;28;20055;-87
2023/09/12 06:34:48;;;;;;;17.30;10.37;;;;;;;-142.57;67.51;115900.28;5050321;28;20041;-85
2023/09/12 06:37:14;;;;;;;17.80;10.05;;;;;;;-142.57;66.49;115900.28;5046438;28;20048;-82
2023/09/12 06:39:40;;;;;;;13.95;10.13;;;;;;;-142.57;64.49;115900.28;5045181;28;20109;-84
2023/09/12 06:42:06;;;;;;;24.23;10.20;;;;;;;-142.57;62.28;115900.28;5053043;28;20463;-84
2023/09/12 06:44:31;;;;;;;20.60;9.85;;;;;;;-142.57;62.51;115900.28;5054769;28;20040;-86
2023/09/12 06:46:57;;;;;;;18.33;9.85;;;;;;;-142.57;62.07;115900.28;5055178;28;20024;-85
2023/09/12 06:49:23;;;;;;;16.65;10.00;;;;;;;-142.57;59.65;115900.28;5055735;28;20069;-82
2023/09/12 06:51:48;;;;;;;18.70;10.07;;;;;;;-142.57;56.12;115900.28;5054730;28;20063;-86
2023/09/12 06:54:14;;;;;;;18.83;10.25;;;;;;;-142.57;56.18;115900.28;5037258;28;20048;-83
2023/09/12 06:56:42;;;;;;;29.67;10.05;;;;;;;-142.57;52.44;115900.28;5039879;28;20040;-85
2023/09/12 06:59:08;;;;;;;20.60;9.38;;;;;;;-142.57;52.90;115900.28;5057578;28;20029;-83
2023/09/12 07:01:34;;;;;;;22.75;9.57;;;;;;;-142.57;51.48;115900.28;5056858;28;20029;-87
2023/09/12 07:04:00;;;;;;;21.10;9.60;;;;;;;-142.57;48.91;115900.28;5056246;28;20029;-85
2023/09/12 07:06:25;;;;;;;14.35;9.95;;;;;;;-142.57;51.14;115900.28;5055017;28;20033;-85
2023/09/12 07:08:53;;;;;;;15.15;8.68;;;;;;;-142.57;51.63;115900.28;5037590;28;20029;-87
2023/09/12 07:11:20;;;;;;;11.30;7.47;;;;;;;-142.57;49.42;115900.28;5063707;28;20036;-85
2023/09/12 07:13:49;;;;;;;13.88;8.25;;;;;;;-142.57;46.55;115900.28;5054957;28;20029;-86
2023/09/12 07:16:16;;;;;;;20.05;9.13;;;;;;;-142.57;48.27;115900.28;5041021;28;20045;-89
2023/09/12 07:18:41;;;;;;;12.20;7.43;;;;;;;-142.57;49.31;115900.28;5023632;28;20039;-90
2023/09/12 07:21:07;;;;;;;11.50;7.28;;;;;;;-142.57;47.87;115900.28;5057972;28;20120;-90
2023/09/12 07:23:33;;;;;;;25.08;7.97;;;;;;;-142.57;48.16;115900.28;5057177;28;20025;-88
2023/09/12 07:25:59;;;;;;;19.73;8.65;;;;;;;-142.57;46.85;115900.28;5056251;28;20033;-90
2023/09/12 07:28:25;;;;;;;16.52;8.10;;;;;;;-142.57;46.24;115900.28;5056963;28;20095;-89
2023/09/12 07:30:52;;;;;;;14.48;8.30;;;;;;;-142.57;45.48;115900.28;5039417;28;20120;-90
2023/09/12 07:33:18;;;;;;;18.42;9.55;;;;;;;-142.57;44.09;115900.28;5039838;28;20147;-89
2023/09/12 07:35:47;;;;;;;24.75;9.52;;;;;;;-142.57;42.33;115900.28;5039928;28;20036;-89
2023/09/12 07:38:16;;;;;;;25.73;8.23;;;;;;;-142.57;39.53;115900.28;5022063;28;20090;-89
2023/09/12 07:40:43;;;;;;;20.45;9.18;;;;;;;-142.57;38.17;115900.28;5039227;28;20048;-85
2023/09/12 07:43:10;;;;;;;15.23;8.30;;;;;;;-142.57;37.57;115900.28;5057525;28;20431;-84
2023/09/12 07:45:41;;;;;;;23.35;9.20;;;;;;;-142.57;40.19;115900.28;5020374;28;20061;-84
2023/09/12 07:48:10;;;;;;;23.67;11.63;;;;;;;-142.57;39.39;115900.28;5036703;28;20041;-87
2023/09/12 07:50:38;;;;;;;20.00;11.60;;;;;;;-142.57;38.77;115900.28;5018962;28;20429;-88
2023/09/12 07:53:05;;;;;;;15.48;8.63;;;;;;;-142.57;39.43;115900.28;5034935;28;20088;-83
2023/09/12 07:55:35;;;;;;;20.45;8.77;;;;;;;-142.57;41.26;115900.28;5049279;28;20033;-87
2023/09/12 07:58:04;;;;;;;19.00;7.65;;;;;;;-142.57;37.94;115900.28;5046900;28;20067;-87
2023/09/12 08:00:30;;;;;;;28.92;10.70;;;;;;;-142.57;36.72;115900.28;5036891;28;20033;-86
2023/09/12 08:02:56;;;;;;;29.73;10.18;;;;;;;-142.57;37.60;115900.28;5020595;28;20471;-87
2023/09/12 08:05:24;;;;;;;26.38;9.75;;;;;;;-142.57;35.09;115900.28;5058410;28;20060;-88
2023/09/12 08:07:49;;;;;;;23.05;11.02;;;;;;;-142.57;37.10;115900.28;5058415;28;20060;-85
2023/09/12 08:10:15;;;;;;;24.55;9.02;;;;;;;-142.57;36.63;115900.28;5039484;28;20036;-79
2023/09/12 08:12:41;;;;;;;18.40;7.57;;;;;;;-142.57;35.46;115900.28;5038917;28;20069;-85
2023/09/12 08:15:08;;;;;;;15.68;8.60;;;;;;;-142.57;33.89;115900.28;5055083;28;20105;-81
2023/09/12 08:17:33;;;;;;;12.57;7.68;;;;;;;-142.57;33.08;115900.28;5055371;28;20041;-80
2023/09/12 08:19:59;;;;;;;35.13;10.45;;;;;;;-142.57;33.95;115900.28;5055528;28;20510;-80
2023/09/12 08:22:25;;;;;;;16.20;7.40;;;;;;;-142.57;32.69;115900.28;5056161;28;20029;-79
2023/09/12 08:24:50;;;;;;;20.25;9.00;;;;;;;-142.57;33.48;115900.28;5057549;28;20468;-81
2023/09/12 08:27:16;;;;;;;19.85;7.18;;;;;;;-142.57;33.28;115900.28;5077064;28;20344;-81
2023/09/12 08:29:43;;;;;;;13.02;7.30;;;;;;;-142.57;33.22;115900.28;5057176;28;20033;-80
2023/09/12 08:32:09;;;;;;;18.15;8.10;;;;;;;-142.57;32.65;115900.28;5055479;28;20037;-81
2023/09/12 08:34:34;;;;;;;19.02;8.73;;;;;;;-142.57;32.24;115900.28;5069370;28;20063;-80
2023/09/12 08:37:00;;;;;;;12.40;8.35;;;;;;;-142.57;32.02;115900.28;5057483;28;20406;-81
2023/09/12 08:39:27;;;;;;;44.15;11.05;;;;;;;-142.57;32.80;115900.28;5055909;28;20033;-81
2023/09/12 08:41:53;;;;;;;23.92;10.30;;;;;;;-142.57;33.17;115900.28;5055284;28;20408;-79
2023/09/12 08:44:20;;;;;;;19.42;8.77;;;;;;;-142.57;33.16;115900.28;5055128;28;20041;-81
2023/09/12 08:46:46;;;;;;;25.45;9.65;;;;;;;-142.57;32.53;115900.28;5037631;28;20510;-80
2023/09/12 08:49:12;;;;;;;15.10;9.40;;;;;;;-142.57;32.28;115900.28;5055372;28;20076;-81
2023/09/12 08:51:39;;;;;;;19.33;10.63;;;;;;;-142.57;31.58;115900.28;5055009;28;20029;-81
2023/09/12 08:54:05;;;;;;;17.48;12.07;;;;;;;-142.57;31.63;115900.28;5037316;28;20117;-79
2023/09/12 08:56:34;;;;;;;16.85;11.32;;;;;;;-142.57;33.22;115900.28;5055067;28;20033;-80
2023/09/12 08:59:01;;;;;;;18.42;11.85;;;;;;;-142.57;33.38;115900.28;5048361;28;20043;-81
2023/09/12 09:01:30;;;;;;;18.75;12.23;;;;;;;-142.57;33.15;115900.28;5034856;28;20481;-79
2023/09/12 09:03:57;;;;;;;20.27;11.25;;;;;;;-142.57;32.93;115900.28;5035037;28;20500;-78
2023/09/12 09:06:23;;;;;;;24.13;11.85;;;;;;;-142.57;33.47;115900.28;5040265;28;20030;-80
2023/09/12 09:08:50;;;;;;;35.92;13.00;;;;;;;-142.57;32.89;115900.28;5052584;28;20559;-80
2023/09/12 09:11:16;;;;;;;25.70;10.65;;;;;;;-142.57;33.24;115900.28;5054841;28;20017;-80
2023/09/12 09:13:42;;;;;;;24.77;9.50;;;;;;;-142.57;32.60;115900.28;5055154;28;20110;-80
2023/09/12 09:16:21;;;;;;;22.35;10.32;;;;;;;-142.57;32.01;115900.28;5057722;28;20361;-78
2023/09/12 09:18:54;;;;;;;28.30;10.50;;;;;;;-142.57;31.50;115900.28;5037170;28;20347;-79
2023/09/12 09:21:25;;;;;;;20.58;10.73;;;;;;;-142.57;31.44;115900.28;5060827;28;20056;-81
2023/09/12 09:23:54;;;;;;;24.92;10.05;;;;;;;-142.57;31.21;115900.28;5054705;28;20479;-80
2023/09/12 09:26:20;;;;;;;20.50;11.88;;;;;;;-142.57;30.97;115900.28;5037668;28;20057;-80
2023/09/12 09:29:03;;;;;;;28.73;9.50;;;;;;;-142.57;31.72;115900.28;5037136;28;20114;-78
2023/09/12 09:31:29;;;;;;;22.58;9.90;;;;;;;-142.57;31.40;115900.28;5054587;28;20029;-81
2023/09/12 09:33:55;;;;;;;18.42;9.80;;;;;;;-142.57;31.40;115900.28;5055791;28;20412;-80
2023/09/12 09:36:20;;;;;;;27.10;10.75;;;;;;;-142.57;31.75;115900.28;5054637;28;20468;-81
2023/09/12 09:38:46;;;;;;;30.42;11.10;;;;;;;-142.57;31.65;115900.28;5036615;28;20047;-81
2023/09/12 09:41:12;;;;;;;21.52;10.00;;;;;;;-142.57;31.13;115900.28;5056408;28;20037;-80
2023/09/12 09:43:37;;;;;;;21.45;10.82;;;;;;;-142.57;31.44;115900.28;5056692;28;20116;-80
2023/09/12 09:46:03;;;;;;;22.42;11.07;;;;;;;-142.57;31.78;115900.28;5054502;28;20064;-79
2023/09/12 09:48:31;;;;;;;31.30;11.18;;;;;;;-142.57;32.00;115900.28;5037557;28;20044;-80
2023/09/12 09:51:03;;;;;;;20.27;8.73;;;;;;;-142.57;31.38;115900.28;5056666;28;20045;-81
2023/09/12 09:53:32;;;;;;;23.98;9.88;;;;;;;-142.57;30.45;115900.28;5054227;28;20116;-79
2023/09/12 09:56:14;;;;;;;30.02;9.95;;;;;;;-142.57;29.05;115900.28;5069152;28;20032;-81
2023/09/12 09:58:48;;;;;;;31.08;9.93;;;;;;;-142.57;29.18;115900.28;5054701;28;20094;-81
2023/09/12 10:01:18;;;;;;;20.70;11.45;;;;;;;-142.57;28.99;115900.28;5055932;28;20037;-81
2023/09/12 10:04:49;;;;;;;20.17;9.33;;;;;;;-142.57;29.08;115900.28;5058499;28;20025;-78
2023/09/12 10:07:16;;;;;;;24.00;9.68;;;;;;;-142.57;28.87;115900.28;4934785;29;20111;-79
2023/09/12 10:09:46;;;;;;;23.98;9.20;;;;;;;-142.57;29.33;115900.28;4934843;29;20035;-80
2023/09/12 10:12:12;;;;;;;31.98;8.82;;;;;;;-142.57;28.92;115900.28;4936580;29;20176;-79
2023/09/12 10:14:40;;;;;;;22.77;10.13;;;;;;;-142.57;28.96;115900.28;4949553;29;20036;-80
2023/09/12 10:17:05;;;;;;;23.10;10.05;;;;;;;-142.57;29.03;115900.28;4945752;29;20108;-81
2023/09/12 10:19:56;;;;;;;20.33;9.25;;;;;;;-142.57;29.56;115900.28;4943683;29;20225;-79
2023/09/12 10:22:28;;;;;;;21.00;10.18;;;;;;;-142.57;29.35;115900.28;4946174;29;20044;-80
2023/09/12 10:24:58;;;;;;;15.88;8.77;;;;;;;-142.57;29.19;115900.28;4941667;29;20159;-80
2023/09/12 10:27:25;;;;;;;22.83;8.43;;;;;;;-142.57;28.54;115900.28;4936552;29;20051;-81
2023/09/12 10:29:53;;;;;;;18.92;8.20;;;;;;;-142.57;27.69;115900.28;4935007;29;20040;-80
2023/09/12 10:32:22;;;;;;;21.38;8.30;;;;;;;-142.57;27.52;115900.28;4934802;29;20059;-83
2023/09/12 10:34:51;;;;;;;21.38;8.90;;;;;;;-142.57;27.39;115900.28;4934607;29;20535;-81
2023/09/12 10:37:21;;;;;;;21.55;10.30;;;;;;;-142.57;27.80;115900.28;4950679;28;20042;-79
2023/09/12 10:39:48;;;;;;;22.08;11.07;;;;;;;-142.57;27.55;115900.28;4973283;28;20038;-81
2023/09/12 10:42:17;;;;;;;17.90;9.13;;;;;;;-142.57;27.38;115900.28;4972190;28;20038;-81
2023/09/12 10:44:46;;;;;;;24.98;9.20;;;;;;;-142.57;27.21;115900.28;5036661;28;20075;-81
2023/09/12 10:47:13;;;;;;;18.65;8.40;;;;;;;-142.57;26.60;115900.28;5053384;28;20033;-80
2023/09/12 10:49:43;;;;;;;25.58;11.15;;;;;;;-142.57;26.64;115900.28;5036040;28;20035;-80
2023/09/12 10:52:09;;;;;;;22.58;9.13;;;;;;;-142.57;26.98;115900.28;5055597;28;20361;-81
2023/09/12 10:54:37;;;;;;;24.15;9.40;;;;;;;-142.57;27.22;115900.28;5053497;28;20090;-81
2023/09/12 10:57:05;;;;;;;14.30;8.30;;;;;;;-142.57;26.86;115900.28;5053610;28;20120;-79
2023/09/12 10:59:36;;;;;;;13.65;8.57;;;;;;;-142.57;26.25;115900.28;5054120;28;20487;-81
2023/09/12 11:02:20;;;;;;;;;;;;;;;-142.57;26.33;115900.28;5055358;28;20041;-81
2023/09/12 11:04:46;;;;;;;23.63;9.45;;;;;;;-142.57;26.48;115900.28;5054213;28;19940;-81